sensor_id;sensor_type;location;lat;lon;timestamp;temperature;humidity
17918;DHT22;9084;50.956;3.106;2023-04-01T00:01:13;10.00;99.90
17918;DHT22;9084;50.956;3.106;2023-04-01T00:03:42;10.00;99.90
17918;DHT22;9084;50.956;3.106;2023-04-01T00:06:14;10.00;99.90
17918;DHT22;9084;50.956;3.106;2023-04-01T00:08:43;10.00;99.90
17918;DHT22;9084;50.956;3.106;2023-04-01T00:11:12;10.00;99.90
17918;DHT22;9084;50.956;3.106;2023-04-01T00:13:38;10.00;99.90
17918;DHT22;9084;50.956;3.106;2023-04-01T00:16:04;10.00;99.90
17918;DHT22;9084;50.956;3.106;2023-04-01T00:18:32;10.00;99.90
17918;DHT22;9084;50.956;3.106;2023-04-01T00:20:58;10.00;99.90
17918;DHT22;9084;50.956;3.106;2023-04-01T00:23:26;10.00;99.90
17918;DHT22;9084;50.956;3.106;2023-04-01T00:25:58;10.00;99.90
17918;DHT22;9084;50.956;3.106;2023-04-01T00:28:24;10.00;99.90
17918;DHT22;9084;50.956;3.106;2023-04-01T00:30:52;10.00;99.90
17918;DHT22;9084;50.956;3.106;2023-04-01T00:33:20;9.90;99.90
17918;DHT22;9084;50.956;3.106;2023-04-01T00:35:48;10.00;99.90
17918;DHT22;9084;50.956;3.106;2023-04-01T00:38:14;9.90;99.90
17918;DHT22;9084;50.956;3.106;2023-04-01T00:40:45;9.90;99.90
17918;DHT22;9084;50.956;3.106;2023-04-01T00:43:14;9.90;99.90
17918;DHT22;9084;50.956;3.106;2023-04-01T00:45:47;9.90;99.90
17918;DHT22;9084;50.956;3.106;2023-04-01T00:48:17;9.90;99.90
17918;DHT22;9084;50.956;3.106;2023-04-01T00:50:50;9.90;99.90
17918;DHT22;9084;50.956;3.106;2023-04-01T00:53:18;9.90;99.90
17918;DHT22;9084;50.956;3.106;2023-04-01T00:55:56;9.90;99.90
17918;DHT22;9084;50.956;3.106;2023-04-01T00:58:24;9.90;99.90
17918;DHT22;9084;50.956;3.106;2023-04-01T01:00:52;9.90;99.90
17918;DHT22;9084;50.956;3.106;2023-04-01T01:03:21;9.90;99.90
17918;DHT22;9084;50.956;3.106;2023-04-01T01:09:06;9.90;99.90
17918;DHT22;9084;50.956;3.106;2023-04-01T01:11:22;9.80;99.90
17918;DHT22;9084;50.956;3.106;2023-04-01T01:16:27;9.80;99.90
17918;DHT22;9084;50.956;3.106;2023-04-01T01:25:16;9.90;99.90
17918;DHT22;9084;50.956;3.106;2023-04-01T01:27:49;9.90;99.90
17918;DHT22;9084;50.956;3.106;2023-04-01T01:30:36;9.80;99.90
17918;DHT22;9084;50.956;3.106;2023-04-01T01:33:11;9.90;99.90
17918;DHT22;9084;50.956;3.106;2023-04-01T01:35:41;9.90;99.90
17918;DHT22;9084;50.956;3.106;2023-04-01T01:38:13;9.90;99.90
17918;DHT22;9084;50.956;3.106;2023-04-01T01:40:44;9.90;99.90
17918;DHT22;9084;50.956;3.106;2023-04-01T01:43:16;9.90;99.90
17918;DHT22;9084;50.956;3.106;2023-04-01T01:45:48;9.80;99.90
17918;DHT22;9084;50.956;3.106;2023-04-01T01:48:15;9.80;99.90
17918;DHT22;9084;50.956;3.106;2023-04-01T01:50:45;9.80;99.90
17918;DHT22;9084;50.956;3.106;2023-04-01T01:53:14;9.80;99.90
17918;DHT22;9084;50.956;3.106;2023-04-01T01:55:44;9.80;99.90
17918;DHT22;9084;50.956;3.106;2023-04-01T02:01:00;9.80;99.90
17918;DHT22;9084;50.956;3.106;2023-04-01T02:03:30;9.80;99.90
17918;DHT22;9084;50.956;3.106;2023-04-01T02:05:59;9.80;99.90
17918;DHT22;9084;50.956;3.106;2023-04-01T02:08:49;9.80;99.90
17918;DHT22;9084;50.956;3.106;2023-04-01T02:11:19;9.80;99.90
17918;DHT22;9084;50.956;3.106;2023-04-01T02:13:55;9.80;99.90
17918;DHT22;9084;50.956;3.106;2023-04-01T02:16:36;9.80;99.90
17918;DHT22;9084;50.956;3.106;2023-04-01T02:19:05;9.80;99.90
17918;DHT22;9084;50.956;3.106;2023-04-01T02:21:37;9.80;99.90
17918;DHT22;9084;50.956;3.106;2023-04-01T02:24:10;9.80;99.90
17918;DHT22;9084;50.956;3.106;2023-04-01T02:26:36;9.90;99.90
17918;DHT22;9084;50.956;3.106;2023-04-01T02:29:03;9.90;99.90
17918;DHT22;9084;50.956;3.106;2023-04-01T02:31:31;9.90;99.90
17918;DHT22;9084;50.956;3.106;2023-04-01T02:34:00;9.90;99.90
17918;DHT22;9084;50.956;3.106;2023-04-01T02:36:25;9.90;99.90
17918;DHT22;9084;50.956;3.106;2023-04-01T02:38:52;9.80;99.90
17918;DHT22;9084;50.956;3.106;2023-04-01T02:41:21;9.90;99.90
17918;DHT22;9084;50.956;3.106;2023-04-01T02:43:50;9.90;99.90
17918;DHT22;9084;50.956;3.106;2023-04-01T02:46:16;9.90;99.90
17918;DHT22;9084;50.956;3.106;2023-04-01T02:48:44;9.90;99.90
17918;DHT22;9084;50.956;3.106;2023-04-01T02:51:15;9.90;99.90
17918;DHT22;9084;50.956;3.106;2023-04-01T02:53:40;9.90;99.90
17918;DHT22;9084;50.956;3.106;2023-04-01T02:56:08;9.90;99.90
17918;DHT22;9084;50.956;3.106;2023-04-01T02:58:36;9.90;99.90
17918;DHT22;9084;50.956;3.106;2023-04-01T03:01:04;9.90;99.90
17918;DHT22;9084;50.956;3.106;2023-04-01T03:03:34;9.90;99.90
17918;DHT22;9084;50.956;3.106;2023-04-01T03:06:08;9.90;99.90
17918;DHT22;9084;50.956;3.106;2023-04-01T03:08:34;9.80;99.90
17918;DHT22;9084;50.956;3.106;2023-04-01T03:11:04;9.80;99.90
17918;DHT22;9084;50.956;3.106;2023-04-01T03:13:33;9.80;99.90
17918;DHT22;9084;50.956;3.106;2023-04-01T03:15:58;9.80;99.90
17918;DHT22;9084;50.956;3.106;2023-04-01T03:18:27;9.80;99.90
17918;DHT22;9084;50.956;3.106;2023-04-01T03:20:55;9.80;99.90
17918;DHT22;9084;50.956;3.106;2023-04-01T03:23:25;9.80;99.90
17918;DHT22;9084;50.956;3.106;2023-04-01T03:25:53;9.70;99.90
17918;DHT22;9084;50.956;3.106;2023-04-01T03:28:21;9.70;99.90
17918;DHT22;9084;50.956;3.106;2023-04-01T03:30:49;9.70;99.90
17918;DHT22;9084;50.956;3.106;2023-04-01T03:33:14;9.70;99.90
17918;DHT22;9084;50.956;3.106;2023-04-01T03:35:40;9.60;99.90
17918;DHT22;9084;50.956;3.106;2023-04-01T03:38:06;9.70;99.90
17918;DHT22;9084;50.956;3.106;2023-04-01T03:40:31;9.60;99.90
17918;DHT22;9084;50.956;3.106;2023-04-01T03:42:58;9.70;99.90
17918;DHT22;9084;50.956;3.106;2023-04-01T03:45:24;9.70;99.90
17918;DHT22;9084;50.956;3.106;2023-04-01T03:47:49;9.60;99.90
17918;DHT22;9084;50.956;3.106;2023-04-01T03:50:15;9.70;99.90
17918;DHT22;9084;50.956;3.106;2023-04-01T03:52:43;9.70;99.90
17918;DHT22;9084;50.956;3.106;2023-04-01T03:55:09;9.60;99.90
17918;DHT22;9084;50.956;3.106;2023-04-01T03:57:37;9.60;99.90
17918;DHT22;9084;50.956;3.106;2023-04-01T04:00:03;9.70;99.90
17918;DHT22;9084;50.956;3.106;2023-04-01T04:02:28;9.60;99.90
17918;DHT22;9084;50.956;3.106;2023-04-01T04:04:56;9.60;99.90
17918;DHT22;9084;50.956;3.106;2023-04-01T04:07:22;9.60;99.90
17918;DHT22;9084;50.956;3.106;2023-04-01T04:09:50;9.60;99.90
17918;DHT22;9084;50.956;3.106;2023-04-01T04:12:20;9.60;99.90
17918;DHT22;9084;50.956;3.106;2023-04-01T04:14:46;9.60;99.90
17918;DHT22;9084;50.956;3.106;2023-04-01T04:17:12;9.60;99.90
17918;DHT22;9084;50.956;3.106;2023-04-01T04:19:42;9.50;99.90
17918;DHT22;9084;50.956;3.106;2023-04-01T04:22:08;9.60;99.90
17918;DHT22;9084;50.956;3.106;2023-04-01T04:24:36;9.50;99.90
17918;DHT22;9084;50.956;3.106;2023-04-01T04:27:04;9.50;99.90
17918;DHT22;9084;50.956;3.106;2023-04-01T04:29:30;9.50;99.90
17918;DHT22;9084;50.956;3.106;2023-04-01T04:31:58;9.50;99.90
17918;DHT22;9084;50.956;3.106;2023-04-01T04:34:24;9.50;99.90
17918;DHT22;9084;50.956;3.106;2023-04-01T04:36:52;9.50;99.90
17918;DHT22;9084;50.956;3.106;2023-04-01T04:39:17;9.50;99.90
17918;DHT22;9084;50.956;3.106;2023-04-01T04:41:46;9.50;99.90
17918;DHT22;9084;50.956;3.106;2023-04-01T04:44:14;9.50;99.90
17918;DHT22;9084;50.956;3.106;2023-04-01T04:46:42;9.50;99.90
17918;DHT22;9084;50.956;3.106;2023-04-01T04:49:13;9.50;99.90
17918;DHT22;9084;50.956;3.106;2023-04-01T04:51:41;9.50;99.90
17918;DHT22;9084;50.956;3.106;2023-04-01T04:54:07;9.50;99.90
17918;DHT22;9084;50.956;3.106;2023-04-01T04:56:35;9.50;99.90
17918;DHT22;9084;50.956;3.106;2023-04-01T04:59:01;9.50;99.90
17918;DHT22;9084;50.956;3.106;2023-04-01T05:01:27;9.50;99.90
17918;DHT22;9084;50.956;3.106;2023-04-01T05:03:57;9.50;99.90
17918;DHT22;9084;50.956;3.106;2023-04-01T05:06:26;9.50;99.90
17918;DHT22;9084;50.956;3.106;2023-04-01T05:08:55;9.50;99.90
17918;DHT22;9084;50.956;3.106;2023-04-01T05:11:21;9.50;99.90
17918;DHT22;9084;50.956;3.106;2023-04-01T05:13:47;9.50;99.90
17918;DHT22;9084;50.956;3.106;2023-04-01T05:16:16;9.50;99.90
17918;DHT22;9084;50.956;3.106;2023-04-01T05:18:47;9.50;99.90
17918;DHT22;9084;50.956;3.106;2023-04-01T05:21:14;9.50;99.90
17918;DHT22;9084;50.956;3.106;2023-04-01T05:23:41;9.50;99.90
17918;DHT22;9084;50.956;3.106;2023-04-01T05:26:12;9.40;99.90
17918;DHT22;9084;50.956;3.106;2023-04-01T05:28:38;9.40;99.90
17918;DHT22;9084;50.956;3.106;2023-04-01T05:31:05;9.50;99.90
17918;DHT22;9084;50.956;3.106;2023-04-01T05:33:31;9.40;99.90
17918;DHT22;9084;50.956;3.106;2023-04-01T05:36:04;9.40;99.90
17918;DHT22;9084;50.956;3.106;2023-04-01T05:38:30;9.40;99.90
17918;DHT22;9084;50.956;3.106;2023-04-01T05:41:00;9.40;99.90
17918;DHT22;9084;50.956;3.106;2023-04-01T05:43:30;9.40;99.90
17918;DHT22;9084;50.956;3.106;2023-04-01T05:45:57;9.40;99.90
17918;DHT22;9084;50.956;3.106;2023-04-01T05:48:22;9.40;99.90
17918;DHT22;9084;50.956;3.106;2023-04-01T05:50:48;9.40;99.90
17918;DHT22;9084;50.956;3.106;2023-04-01T05:53:14;9.40;99.90
17918;DHT22;9084;50.956;3.106;2023-04-01T05:55:39;9.40;99.90
17918;DHT22;9084;50.956;3.106;2023-04-01T05:58:05;9.40;99.90
17918;DHT22;9084;50.956;3.106;2023-04-01T06:00:31;9.40;99.90
17918;DHT22;9084;50.956;3.106;2023-04-01T06:02:59;9.40;99.90
17918;DHT22;9084;50.956;3.106;2023-04-01T06:05:30;9.40;99.90
17918;DHT22;9084;50.956;3.106;2023-04-01T06:08:14;9.40;99.90
17918;DHT22;9084;50.956;3.106;2023-04-01T06:10:48;9.40;99.90
17918;DHT22;9084;50.956;3.106;2023-04-01T06:16:54;9.40;99.90
17918;DHT22;9084;50.956;3.106;2023-04-01T06:20:41;9.50;99.90
17918;DHT22;9084;50.956;3.106;2023-04-01T06:31:10;9.50;99.90
17918;DHT22;9084;50.956;3.106;2023-04-01T06:39:37;9.50;99.90
17918;DHT22;9084;50.956;3.106;2023-04-01T06:42:43;9.50;99.90
17918;DHT22;9084;50.956;3.106;2023-04-01T06:50:59;9.50;99.90
17918;DHT22;9084;50.956;3.106;2023-04-01T06:56:15;9.50;99.90
17918;DHT22;9084;50.956;3.106;2023-04-01T06:58:59;9.50;99.90
17918;DHT22;9084;50.956;3.106;2023-04-01T07:01:35;9.50;99.90
17918;DHT22;9084;50.956;3.106;2023-04-01T07:04:18;9.50;99.90
17918;DHT22;9084;50.956;3.106;2023-04-01T07:09:55;9.50;99.90
17918;DHT22;9084;50.956;3.106;2023-04-01T07:12:37;9.40;99.90
17918;DHT22;9084;50.956;3.106;2023-04-01T07:15:32;9.40;99.90
17918;DHT22;9084;50.956;3.106;2023-04-01T07:18:03;9.50;99.90
17918;DHT22;9084;50.956;3.106;2023-04-01T07:20:35;9.50;99.90
17918;DHT22;9084;50.956;3.106;2023-04-01T07:23:10;9.50;99.90
17918;DHT22;9084;50.956;3.106;2023-04-01T07:25:44;9.50;99.90
17918;DHT22;9084;50.956;3.106;2023-04-01T07:28:17;9.60;99.90
17918;DHT22;9084;50.956;3.106;2023-04-01T07:36:13;9.60;99.90
17918;DHT22;9084;50.956;3.106;2023-04-01T07:49:37;9.70;99.90
17918;DHT22;9084;50.956;3.106;2023-04-01T07:55:21;9.70;99.90
17918;DHT22;9084;50.956;3.106;2023-04-01T08:00:41;9.70;99.90
17918;DHT22;9084;50.956;3.106;2023-04-01T08:03:33;9.70;99.90
17918;DHT22;9084;50.956;3.106;2023-04-01T08:17:19;9.70;99.90
17918;DHT22;9084;50.956;3.106;2023-04-01T08:19:59;9.80;99.90
17918;DHT22;9084;50.956;3.106;2023-04-01T08:22:43;9.70;99.90
17918;DHT22;9084;50.956;3.106;2023-04-01T08:25:22;9.80;99.90
17918;DHT22;9084;50.956;3.106;2023-04-01T08:28:19;9.80;99.90
17918;DHT22;9084;50.956;3.106;2023-04-01T08:30:51;9.70;99.90
17918;DHT22;9084;50.956;3.106;2023-04-01T08:33:29;9.70;99.90
17918;DHT22;9084;50.956;3.106;2023-04-01T08:36:28;9.70;99.90
17918;DHT22;9084;50.956;3.106;2023-04-01T08:44:31;9.70;99.90
17918;DHT22;9084;50.956;3.106;2023-04-01T08:52:51;9.80;99.90
17918;DHT22;9084;50.956;3.106;2023-04-01T08:58:20;9.90;99.90
17918;DHT22;9084;50.956;3.106;2023-04-01T09:00:54;10.00;99.90
17918;DHT22;9084;50.956;3.106;2023-04-01T09:06:25;10.20;99.90
17918;DHT22;9084;50.956;3.106;2023-04-01T09:11:38;10.20;99.90
17918;DHT22;9084;50.956;3.106;2023-04-01T09:14:46;10.20;99.90
17918;DHT22;9084;50.956;3.106;2023-04-01T09:44:59;10.00;99.90
17918;DHT22;9084;50.956;3.106;2023-04-01T10:28:57;10.30;99.90
17918;DHT22;9084;50.956;3.106;2023-04-01T10:42:25;10.30;99.90
17918;DHT22;9084;50.956;3.106;2023-04-01T11:27:16;10.60;99.90
17918;DHT22;9084;50.956;3.106;2023-04-01T11:29:27;10.50;99.90
17918;DHT22;9084;50.956;3.106;2023-04-01T11:41:18;10.60;99.90
17918;DHT22;9084;50.956;3.106;2023-04-01T11:44:22;10.40;99.90
17918;DHT22;9084;50.956;3.106;2023-04-01T11:47:52;10.40;99.90
17918;DHT22;9084;50.956;3.106;2023-04-01T11:50:38;10.40;99.90
17918;DHT22;9084;50.956;3.106;2023-04-01T11:53:41;10.60;99.90
17918;DHT22;9084;50.956;3.106;2023-04-01T12:27:12;10.90;99.90
17918;DHT22;9084;50.956;3.106;2023-04-01T13:00:12;10.40;99.90
17918;DHT22;9084;50.956;3.106;2023-04-01T13:29:21;10.00;99.90
17918;DHT22;9084;50.956;3.106;2023-04-01T13:43:47;9.90;99.90
17918;DHT22;9084;50.956;3.106;2023-04-01T13:49:08;9.80;99.90
17918;DHT22;9084;50.956;3.106;2023-04-01T14:22:51;9.70;99.90
17918;DHT22;9084;50.956;3.106;2023-04-01T14:31:27;9.80;99.90
17918;DHT22;9084;50.956;3.106;2023-04-01T14:34:21;9.80;99.90
17918;DHT22;9084;50.956;3.106;2023-04-01T14:37:01;9.80;99.90
17918;DHT22;9084;50.956;3.106;2023-04-01T14:42:49;9.90;99.90
17918;DHT22;9084;50.956;3.106;2023-04-01T14:48:25;9.80;99.90
17918;DHT22;9084;50.956;3.106;2023-04-01T14:50:55;9.70;99.90
17918;DHT22;9084;50.956;3.106;2023-04-01T14:53:27;9.70;99.90
17918;DHT22;9084;50.956;3.106;2023-04-01T14:56:01;9.80;99.90
17918;DHT22;9084;50.956;3.106;2023-04-01T14:58:46;9.70;99.90
17918;DHT22;9084;50.956;3.106;2023-04-01T15:04:23;9.70;99.90
17918;DHT22;9084;50.956;3.106;2023-04-01T15:17:55;9.60;99.90
17918;DHT22;9084;50.956;3.106;2023-04-01T15:47:32;9.30;99.90
17918;DHT22;9084;50.956;3.106;2023-04-01T15:52:57;9.30;99.90
17918;DHT22;9084;50.956;3.106;2023-04-01T16:00:44;9.20;99.90
17918;DHT22;9084;50.956;3.106;2023-04-01T16:11:25;9.10;99.90
17918;DHT22;9084;50.956;3.106;2023-04-01T16:20:03;9.10;99.90
17918;DHT22;9084;50.956;3.106;2023-04-01T16:22:45;9.10;99.90
17918;DHT22;9084;50.956;3.106;2023-04-01T16:25:25;9.00;99.90
17918;DHT22;9084;50.956;3.106;2023-04-01T16:30:38;9.00;99.90
17918;DHT22;9084;50.956;3.106;2023-04-01T16:33:19;9.00;99.90
17918;DHT22;9084;50.956;3.106;2023-04-01T16:38:45;9.00;99.90
17918;DHT22;9084;50.956;3.106;2023-04-01T16:41:30;9.10;99.90
17918;DHT22;9084;50.956;3.106;2023-04-01T16:44:09;9.10;99.90
17918;DHT22;9084;50.956;3.106;2023-04-01T16:47:09;9.00;99.90
17918;DHT22;9084;50.956;3.106;2023-04-01T16:49:45;9.00;99.90
17918;DHT22;9084;50.956;3.106;2023-04-01T17:02:37;9.00;99.90
17918;DHT22;9084;50.956;3.106;2023-04-01T17:05:06;9.00;99.90
17918;DHT22;9084;50.956;3.106;2023-04-01T17:07:57;9.00;99.90
17918;DHT22;9084;50.956;3.106;2023-04-01T17:14:23;9.00;99.90
17918;DHT22;9084;50.956;3.106;2023-04-01T17:22:18;8.90;99.90
17918;DHT22;9084;50.956;3.106;2023-04-01T17:25:13;9.00;99.90
17918;DHT22;9084;50.956;3.106;2023-04-01T17:27:51;8.90;99.90
17918;DHT22;9084;50.956;3.106;2023-04-01T17:33:19;8.90;99.90
17918;DHT22;9084;50.956;3.106;2023-04-01T17:44:47;8.90;99.90
17918;DHT22;9084;50.956;3.106;2023-04-01T17:52:42;9.00;99.90
17918;DHT22;9084;50.956;3.106;2023-04-01T18:09:00;8.90;99.90
17918;DHT22;9084;50.956;3.106;2023-04-01T18:17:27;8.90;99.90
17918;DHT22;9084;50.956;3.106;2023-04-01T18:22:44;8.90;99.90
17918;DHT22;9084;50.956;3.106;2023-04-01T18:30:57;8.80;99.90
17918;DHT22;9084;50.956;3.106;2023-04-01T18:33:34;8.80;99.90
17918;DHT22;9084;50.956;3.106;2023-04-01T18:41:50;8.80;99.90
17918;DHT22;9084;50.956;3.106;2023-04-01T18:49:30;8.70;99.90
17918;DHT22;9084;50.956;3.106;2023-04-01T18:57:20;8.80;99.90
17918;DHT22;9084;50.956;3.106;2023-04-01T18:59:54;8.70;99.90
17918;DHT22;9084;50.956;3.106;2023-04-01T19:02:43;8.70;99.90
17918;DHT22;9084;50.956;3.106;2023-04-01T19:07:56;8.60;99.90
17918;DHT22;9084;50.956;3.106;2023-04-01T19:10:40;8.60;99.90
17918;DHT22;9084;50.956;3.106;2023-04-01T19:13:31;8.60;99.90
17918;DHT22;9084;50.956;3.106;2023-04-01T19:21:42;8.60;99.90
17918;DHT22;9084;50.956;3.106;2023-04-01T19:27:03;8.60;99.90
17918;DHT22;9084;50.956;3.106;2023-04-01T19:33:07;8.60;99.90
17918;DHT22;9084;50.956;3.106;2023-04-01T19:41:38;8.60;99.90
17918;DHT22;9084;50.956;3.106;2023-04-01T19:43:50;8.60;99.90
17918;DHT22;9084;50.956;3.106;2023-04-01T19:46:41;8.60;99.90
17918;DHT22;9084;50.956;3.106;2023-04-01T19:57:09;8.60;99.90
17918;DHT22;9084;50.956;3.106;2023-04-01T20:04:46;8.50;99.90
17918;DHT22;9084;50.956;3.106;2023-04-01T20:07:32;8.50;99.90
17918;DHT22;9084;50.956;3.106;2023-04-01T20:10:09;8.50;99.90
17918;DHT22;9084;50.956;3.106;2023-04-01T20:15:27;8.50;99.90
17918;DHT22;9084;50.956;3.106;2023-04-01T20:17:57;8.50;99.90
17918;DHT22;9084;50.956;3.106;2023-04-01T20:20:26;8.50;99.90
17918;DHT22;9084;50.956;3.106;2023-04-01T20:26:10;8.40;99.90
17918;DHT22;9084;50.956;3.106;2023-04-01T20:42:04;8.40;99.90
17918;DHT22;9084;50.956;3.106;2023-04-01T20:53:04;8.40;99.90
17918;DHT22;9084;50.956;3.106;2023-04-01T21:16:21;8.30;99.90
17918;DHT22;9084;50.956;3.106;2023-04-01T21:27:05;8.30;99.90
17918;DHT22;9084;50.956;3.106;2023-04-01T21:29:57;8.30;99.90
17918;DHT22;9084;50.956;3.106;2023-04-01T21:35:40;8.30;99.90
17918;DHT22;9084;50.956;3.106;2023-04-01T21:41:26;8.30;99.90
17918;DHT22;9084;50.956;3.106;2023-04-01T21:46:55;8.30;99.90
17918;DHT22;9084;50.956;3.106;2023-04-01T21:55:34;8.20;99.90
17918;DHT22;9084;50.956;3.106;2023-04-01T22:01:31;8.20;99.90
17918;DHT22;9084;50.956;3.106;2023-04-01T22:07:17;8.20;99.90
17918;DHT22;9084;50.956;3.106;2023-04-01T22:15:16;8.20;99.90
17918;DHT22;9084;50.956;3.106;2023-04-01T22:17:54;8.10;99.90
17918;DHT22;9084;50.956;3.106;2023-04-01T22:20:50;8.20;99.90
17918;DHT22;9084;50.956;3.106;2023-04-01T22:23:47;8.10;99.90
17918;DHT22;9084;50.956;3.106;2023-04-01T22:26:56;8.10;99.90
17918;DHT22;9084;50.956;3.106;2023-04-01T22:31:55;8.20;99.90
17918;DHT22;9084;50.956;3.106;2023-04-01T22:34:42;8.10;99.90
17918;DHT22;9084;50.956;3.106;2023-04-01T22:37:19;8.20;99.90
17918;DHT22;9084;50.956;3.106;2023-04-01T22:50:35;8.10;99.90
17918;DHT22;9084;50.956;3.106;2023-04-01T22:56:06;8.20;99.90
17918;DHT22;9084;50.956;3.106;2023-04-01T22:58:49;8.10;99.90
17918;DHT22;9084;50.956;3.106;2023-04-01T23:01:22;8.20;99.90
17918;DHT22;9084;50.956;3.106;2023-04-01T23:03:51;8.10;99.90
17918;DHT22;9084;50.956;3.106;2023-04-01T23:06:41;8.10;99.90
17918;DHT22;9084;50.956;3.106;2023-04-01T23:09:09;8.10;99.90
17918;DHT22;9084;50.956;3.106;2023-04-01T23:19:42;8.20;99.90
17918;DHT22;9084;50.956;3.106;2023-04-01T23:22:33;8.20;99.90
17918;DHT22;9084;50.956;3.106;2023-04-01T23:38:25;8.20;99.90
17918;DHT22;9084;50.956;3.106;2023-04-01T23:40:54;8.20;99.90
17918;DHT22;9084;50.956;3.106;2023-04-01T23:45:53;8.20;99.90
17918;DHT22;9084;50.956;3.106;2023-04-01T23:48:30;8.20;99.90
17918;DHT22;9084;50.956;3.106;2023-04-01T23:50:57;8.20;99.90
17918;DHT22;9084;50.956;3.106;2023-04-01T23:53:30;8.20;99.90
17918;DHT22;9084;50.956;3.106;2023-04-01T23:55:56;8.20;99.90
17918;DHT22;9084;50.956;3.106;2023-04-01T23:58:27;8.20;99.90
